• Join FlightAware (Why Join?)
  • Login
  • US Flag 
12:27AM EDT


 

Airport Tracker/Info


-or-


 

Live Flight TrackerFlight Track Log ✈ N136JP ✈ 15-Jun-2012 ✈ KFRG - KBED

Flight Track Log - Related Links

Times and Time Zones

All times are in EDT time to prevent confusion due to time zone crossing. See the N136JP flight status page for this flight to view local times or setup timezone preferences in your user account.

Time Position Orientation Groundspeed Altitude Reporting Facility
EDT Latitude Longitude Course Direction KTS MPH feet Rate Location/Type
11:09AM 40.7833 -73.4167 15° North 192 221 1,300  Level New York TRACON
11:10AM 40.8606 -73.3894 26° Northeast 197 227 6,100 3,480 Climbing Boston Center
11:11AM 40.9150 -73.3547 20° North 209 241 10,100 3,000 Climbing Boston Center
11:12AM 40.9819 -73.3225 21° North 230 265 12,200 1,320 Climbing Boston Center
11:13AM 41.0697 -73.2769 43° Northeast 283 326 12,800 360 Climbing Boston Center
11:14AM 41.1328 -73.1981 48° Northeast 306 352 13,000 60 Climbing Boston Center
11:15AM 41.1917 -73.1103 42° Northeast 306 352 13,000  Level Boston Center
11:16AM 41.2547 -73.0336 43° Northeast 306 352 13,000  Level Boston Center
11:17AM 41.3197 -72.9542 42° Northeast 313 360 13,000  Level Boston Center
11:18AM 41.3908 -72.8689 43° Northeast 326 375 13,100  Climbing Boston Center
11:19AM 41.4600 -72.7836 44° Northeast 332 382 13,000  Descending Boston Center
11:20AM 41.5289 -72.6953 43° Northeast 338 389 13,100 -60 Climbing Boston Center
11:21AM 41.5978 -72.6094 45° Northeast 338 389 12,900 -600 Descending Boston Center
11:22AM 41.6647 -72.5206 39° Northeast 338 389 12,000 -840 Descending Boston Center
11:23AM 41.7356 -72.4428 38° Northeast 332 382 11,300 -540 Descending Boston Center
11:24AM 41.8064 -72.3678 40° Northeast 320 368 11,000 -180 Descending Boston Center
11:25AM 41.8689 -72.2981 36° Northeast 320 368 11,000  Level Boston Center
11:26AM 41.9083 -72.2589 42° Northeast 324 373 11,000  Level Boston Center
11:26AM 41.9458 -72.2139 42° Northeast 320 368 11,000  Level Boston Center
11:27AM 41.9833 -72.1692 41° Northeast 325 374 11,000 -1,260 Level Boston Center
11:28AM 42.0414 -72.1019 40° Northeast 274 315 9,100 -2,160 Descending Boston Center
11:29AM 42.1161 -72.0175 39° Northeast 261 300 5,700 -1,980 Descending Boston Center
11:30AM 42.1494 -71.9808 40° Northeast 235 270 5,100 -480 Descending Boston Center
11:31AM 42.1992 -71.9244 40° Northeast 236 272 5,000 -60 Descending Boston Center
11:32AM 42.2778 -71.8339 43° Northeast 242 278 5,000  Level Boston Center
11:33AM 42.3275 -71.7717 42° Northeast 242 278 5,000  Level Boston Center
11:34AM 42.3792 -71.7094 37° Northeast 247 284 5,000 -420 Level Boston Center
11:35AM 42.4186 -71.6694 37° Northeast 213 245 4,200 -540 Descending Boston Center
11:36AM 42.4600 -71.6267 37° Northeast 175 201 4,000 -120 Descending Boston Center
11:37AM 42.4911 -71.5953 80° East 157 181 4,000 -300 Level Boston Center
11:38AM 42.4989 -71.5361 102° East 144 166 3,400 -600 Descending Boston Center
11:39AM 42.4900 -71.4800 100° East 154 177 2,800 -720 Descending Boston Center
11:40AM 42.4833 -71.4267 94° East 147 169 2,000 -720 Descending Boston Center
11:41AM 42.4808 -71.3817 97° East 137 158 1,400 -720 Descending Boston Center
11:42AM 42.4761 -71.3283 97° East 132 152 600 -540 Descending Boston Center
11:43AM 42.4717 -71.2803 97° East 127 146 400 -240 Descending Boston Center